createdAt,value
2019-02-03T00:04:41.048Z,95783.12
2019-02-03T00:07:11.791Z,95770.26
2019-02-03T00:09:45.863Z,95773.78
2019-02-03T00:12:14.471Z,95776.69
2019-02-03T00:14:50.489Z,95765.78
2019-02-03T00:17:17.985Z,95761.95
2019-02-03T00:19:45.220Z,95765.27
2019-02-03T00:22:13.403Z,95771.64
2019-02-03T00:24:41.369Z,95772.91
2019-02-03T00:27:08.542Z,95763.52
2019-02-03T00:29:35.776Z,95762.34
2019-02-03T00:32:02.504Z,95772.89
2019-02-03T00:34:29.979Z,95769.54
2019-02-03T00:36:58.138Z,95776.46
2019-02-03T00:39:26.711Z,95787.64
2019-02-03T00:41:54.721Z,95784.78
2019-02-03T00:44:21.565Z,95780.64
2019-02-03T00:46:49.344Z,95765.16
2019-02-03T00:49:16.179Z,95773.78
2019-02-03T00:51:43.981Z,95756.78
2019-02-03T00:54:11.095Z,95753.41
2019-02-03T00:56:37.884Z,95756.04
2019-02-03T00:59:05.304Z,95754.77
2019-02-03T01:01:32.438Z,95741.67
2019-02-03T01:04:00.876Z,95729.25
2019-02-03T01:06:28.380Z,95710.55
2019-02-03T01:08:57.010Z,95698.40
2019-02-03T01:11:25.270Z,95717.18
2019-02-03T01:13:53.385Z,95721.36
2019-02-03T01:16:20.374Z,95701.48
2019-02-03T01:18:48.328Z,95687.78
2019-02-03T01:21:16.019Z,95695.78
2019-02-03T01:23:43.808Z,95685.47
2019-02-03T01:26:12.009Z,95681.95
2019-02-03T01:28:39.445Z,95671.43
2019-02-03T01:31:07.015Z,95669.74
2019-02-03T01:33:34.701Z,95663.91
2019-02-03T01:36:01.558Z,95643.56
2019-02-03T01:38:29.114Z,95649.70
2019-02-03T01:40:56.668Z,95648.22
2019-02-03T01:43:23.933Z,95648.17
2019-02-03T01:45:52.455Z,95640.07
2019-02-03T01:48:20.140Z,95650.27
2019-02-03T01:50:46.878Z,95641.59
2019-02-03T01:53:15.286Z,95642.53
2019-02-03T01:55:43.261Z,95646.33
2019-02-03T01:58:10.038Z,95643.28
2019-02-03T02:00:37.623Z,95639.53
2019-02-03T02:03:04.580Z,95647.38
2019-02-03T02:05:33.177Z,95639.33
2019-02-03T02:07:59.956Z,95637.69
2019-02-03T02:10:30.396Z,95642.22
2019-02-03T02:12:56.110Z,95640.42
2019-02-03T02:15:23.318Z,95641.05
2019-02-03T02:17:50.160Z,95638.46
2019-02-03T02:20:18.191Z,95633.27
2019-02-03T02:22:46.107Z,95619.96
2019-02-03T02:25:15.056Z,95613.96
2019-02-03T02:27:41.836Z,95614.36
2019-02-03T02:30:09.402Z,95617.58
2019-02-03T02:32:36.488Z,95619.27
2019-02-03T02:35:04.941Z,95641.44
2019-02-03T02:37:31.607Z,95654.84
2019-02-03T02:42:34.030Z,95654.73
2019-02-03T02:45:01.374Z,95633.72
2019-02-03T02:47:29.364Z,95645.58
2019-02-03T02:49:58.256Z,95634.81
2019-02-03T02:52:26.150Z,95644.64
2019-02-03T02:54:53.366Z,95653.88
2019-02-03T02:57:20.995Z,95654.75
2019-02-03T02:59:49.132Z,95641.87
2019-02-03T03:02:17.005Z,95642.27
2019-02-03T03:04:46.000Z,95635.95
2019-02-03T03:07:14.005Z,95643.11
2019-02-03T03:09:42.078Z,95644.17
2019-02-03T03:12:08.752Z,95632.13
2019-02-03T03:14:35.814Z,95637.70
2019-02-03T03:17:02.847Z,95634.95
2019-02-03T03:19:29.734Z,95624.44
2019-02-03T03:21:58.424Z,95633.80
2019-02-03T03:24:26.600Z,95642.63
2019-02-03T03:26:54.591Z,95653.83
2019-02-03T03:29:22.315Z,95651.02
2019-02-03T03:31:49.982Z,95656.69
2019-02-03T03:34:17.577Z,95653.73
2019-02-03T03:36:45.898Z,95664.98
2019-02-03T03:39:12.865Z,95666.87
2019-02-03T03:41:41.081Z,95679.87
2019-02-03T03:44:08.667Z,95691.39
2019-02-03T03:46:35.631Z,95708.52
2019-02-03T03:49:03.450Z,95727.84
2019-02-03T03:51:31.927Z,95750.05
2019-02-03T03:53:59.787Z,95770.69
2019-02-03T03:56:27.139Z,95772.80
2019-02-03T03:58:54.757Z,95769.70
2019-02-03T04:01:24.354Z,95765.78
2019-02-03T04:03:51.634Z,95777.64
2019-02-03T04:06:18.561Z,95767.33
2019-02-03T04:08:46.841Z,95775.73
2019-02-03T04:11:13.991Z,95785.37
2019-02-03T04:16:27.183Z,95789.87
2019-02-03T04:18:54.335Z,95783.78
2019-02-03T04:21:21.226Z,95771.94
2019-02-03T04:23:48.424Z,95771.12
2019-02-03T04:26:16.649Z,95753.20
2019-02-03T04:28:43.378Z,95756.46
2019-02-03T04:31:10.238Z,95752.55
2019-02-03T04:33:37.270Z,95756.72
2019-02-03T04:36:04.489Z,95753.13
2019-02-03T04:38:31.317Z,95762.09
2019-02-03T04:40:58.302Z,95741.77
2019-02-03T04:43:24.997Z,95736.23
2019-02-03T04:45:52.978Z,95749.00
2019-02-03T04:48:20.631Z,95743.39
2019-02-03T04:50:47.769Z,95730.50
2019-02-03T04:53:14.553Z,95726.17
2019-02-03T04:55:43.209Z,95721.62
2019-02-03T04:58:09.903Z,95721.69
2019-02-03T05:00:36.689Z,95731.93
2019-02-03T05:03:03.742Z,95731.39
2019-02-03T05:05:31.184Z,95730.75
2019-02-03T05:07:57.851Z,95746.84
2019-02-03T05:10:25.082Z,95749.13
2019-02-03T05:12:51.878Z,95740.55
2019-02-03T05:15:19.367Z,95746.23
2019-02-03T05:17:47.306Z,95743.20
2019-02-03T05:20:13.906Z,95739.18
2019-02-03T05:22:41.024Z,95743.69
2019-02-03T05:25:07.756Z,95760.26
2019-02-03T05:27:34.666Z,95762.32
2019-02-03T05:30:01.332Z,95773.91
2019-02-03T05:32:28.490Z,95770.52
2019-02-03T05:34:55.507Z,95769.38
2019-02-03T05:37:22.303Z,95784.63
2019-02-03T05:39:49.505Z,95794.88
2019-02-03T05:42:17.669Z,95796.77
2019-02-03T05:44:44.434Z,95789.61
2019-02-03T05:47:12.165Z,95783.48
2019-02-03T05:49:40.062Z,95787.59
2019-02-03T05:52:06.670Z,95791.77
2019-02-03T05:54:33.553Z,95798.62
2019-02-03T05:57:01.678Z,95807.69
2019-02-03T05:59:28.822Z,95815.70
2019-02-03T06:01:56.050Z,95823.63
2019-02-03T06:04:22.779Z,95812.73
2019-02-03T06:06:49.760Z,95808.02
2019-02-03T06:09:16.566Z,95808.09
2019-02-03T06:11:44.376Z,95809.00
2019-02-03T06:14:11.066Z,95810.17
2019-02-03T06:16:37.994Z,95818.34
2019-02-03T06:19:05.060Z,95817.29
2019-02-03T06:21:33.148Z,95828.45
2019-02-03T06:24:00.869Z,95829.13
2019-02-03T06:26:27.550Z,95852.85
2019-02-03T06:28:55.532Z,95858.74
2019-02-03T06:31:22.496Z,95862.58
2019-02-03T06:33:49.530Z,95861.27
2019-02-03T06:36:16.237Z,95859.54
2019-02-03T06:38:43.270Z,95862.81
2019-02-03T06:41:10.489Z,95859.52
2019-02-03T06:43:39.896Z,95856.95
2019-02-03T06:46:08.919Z,95868.50
2019-02-03T06:48:38.527Z,95865.77
2019-02-03T06:51:07.191Z,95863.27
2019-02-03T06:53:36.269Z,95873.33
2019-02-03T06:56:04.150Z,95887.02
2019-02-03T06:58:35.632Z,95899.54
2019-02-03T07:01:05.341Z,95886.36
2019-02-03T07:03:36.844Z,95893.48
2019-02-03T07:06:05.050Z,95879.17
2019-02-03T07:08:34.314Z,95884.98
2019-02-03T07:11:02.250Z,95881.31
2019-02-03T07:13:33.913Z,95880.14
2019-02-03T07:16:01.931Z,95885.98
2019-02-03T07:18:33.442Z,95909.91
2019-02-03T07:21:01.158Z,95926.94
2019-02-03T07:23:30.459Z,95935.90
2019-02-03T07:28:44.959Z,95962.84
2019-02-03T07:31:13.383Z,95967.44
2019-02-03T07:33:44.911Z,95952.95
2019-02-03T07:36:11.486Z,95939.36
2019-02-03T07:38:41.287Z,95955.79
2019-02-03T07:41:08.716Z,95972.19
2019-02-03T07:43:39.544Z,95980.29
2019-02-03T07:46:08.645Z,95976.83
2019-02-03T07:48:36.460Z,95973.50
2019-02-03T07:51:03.577Z,95961.98
2019-02-03T07:53:32.975Z,95970.77
2019-02-03T07:55:59.966Z,95975.97
2019-02-03T07:58:29.747Z,95969.11
2019-02-03T08:01:01.576Z,95982.69
2019-02-03T08:03:28.581Z,96001.36
2019-02-03T08:05:55.461Z,96002.16
2019-02-03T08:08:23.940Z,96000.36
2019-02-03T08:10:50.695Z,96015.48
2019-02-03T08:13:17.318Z,96021.03
2019-02-03T08:15:43.953Z,96014.29
2019-02-03T08:18:10.777Z,96027.00
2019-02-03T08:20:37.390Z,96038.67
2019-02-03T08:23:04.092Z,96036.67
2019-02-03T08:25:30.947Z,96048.86
2019-02-03T08:27:57.594Z,96049.48
2019-02-03T08:30:24.315Z,96048.55
2019-02-03T08:32:51.035Z,96050.01
2019-02-03T08:35:20.002Z,96043.25
2019-02-03T08:37:46.483Z,96037.64
2019-02-03T08:40:13.169Z,96054.44
2019-02-03T08:42:40.325Z,96056.80
2019-02-03T08:45:07.583Z,96065.03
2019-02-03T08:47:34.618Z,96061.77
2019-02-03T08:50:01.439Z,96060.70
2019-02-03T08:52:29.043Z,96053.42
2019-02-03T08:54:58.254Z,96055.22
2019-02-03T08:57:26.165Z,96059.44
2019-02-03T08:59:52.768Z,96071.03
2019-02-03T09:02:20.912Z,96075.13
2019-02-03T09:04:47.631Z,96080.30
2019-02-03T09:07:14.531Z,96074.16
2019-02-03T09:09:41.523Z,96072.55
2019-02-03T09:12:08.742Z,96079.70
2019-02-03T09:14:35.797Z,96078.44
2019-02-03T09:17:03.007Z,96081.13
2019-02-03T09:19:29.853Z,96083.20
2019-02-03T09:21:56.733Z,96065.21
2019-02-03T09:24:23.432Z,96067.86
2019-02-03T09:26:51.179Z,96059.55
2019-02-03T09:29:17.876Z,96068.41
2019-02-03T09:31:45.019Z,96069.25
2019-02-03T09:34:11.974Z,96072.11
2019-02-03T09:36:39.628Z,96057.38
2019-02-03T09:39:07.462Z,96059.56
2019-02-03T09:41:34.192Z,96080.40
2019-02-03T09:44:00.955Z,96086.69
2019-02-03T09:46:27.604Z,96087.38
2019-02-03T09:48:54.549Z,96086.87
2019-02-03T09:51:21.828Z,96089.41
2019-02-03T09:53:48.676Z,96089.70
2019-02-03T09:56:15.487Z,96088.34
2019-02-03T09:58:42.433Z,96095.40
2019-02-03T10:01:09.625Z,96095.14
2019-02-03T10:03:36.749Z,96108.53
2019-02-03T10:06:03.775Z,96123.38
2019-02-03T10:08:40.307Z,96130.23
2019-02-03T10:11:11.260Z,96132.19
2019-02-03T10:13:28.459Z,96137.26
2019-02-03T10:15:55.750Z,96146.45
2019-02-03T10:18:22.697Z,96150.51
2019-02-03T10:20:49.606Z,96151.09
2019-02-03T10:23:16.634Z,96148.94
2019-02-03T10:25:43.580Z,96161.72
2019-02-03T10:28:10.207Z,96151.66
2019-02-03T10:30:36.772Z,96169.35
2019-02-03T10:33:03.913Z,96166.97
2019-02-03T10:35:30.880Z,96163.20
2019-02-03T10:37:57.862Z,96153.82
2019-02-03T10:40:28.563Z,96146.75
2019-02-03T10:42:57.617Z,96140.31
2019-02-03T10:45:25.838Z,96115.38
2019-02-03T10:48:09.679Z,96055.23
2019-02-03T10:50:44.283Z,96014.66
2019-02-03T10:53:15.647Z,95979.95
2019-02-03T10:55:43.620Z,95995.75
2019-02-03T10:58:14.655Z,96011.21
2019-02-03T11:00:42.369Z,96057.09
2019-02-03T11:03:09.085Z,96096.27
2019-02-03T11:05:36.010Z,96118.52
2019-02-03T11:08:02.636Z,96094.15
2019-02-03T11:10:29.393Z,96106.24
2019-02-03T11:12:56.073Z,96140.35
2019-02-03T11:15:22.745Z,96123.95
2019-02-03T11:17:49.543Z,96089.67
2019-02-03T11:20:18.243Z,96130.02
2019-02-03T11:22:44.601Z,96150.84
2019-02-03T11:25:11.996Z,96151.11
2019-02-03T11:27:38.781Z,96148.22
2019-02-03T11:30:05.549Z,96164.47
2019-02-03T11:32:32.303Z,96166.02
2019-02-03T11:34:58.960Z,96163.94
2019-02-03T11:37:25.595Z,96175.83
2019-02-03T11:39:52.831Z,96177.48
2019-02-03T11:42:19.438Z,96184.65
2019-02-03T11:44:46.177Z,96188.63
2019-02-03T11:47:12.789Z,96180.91
2019-02-03T11:49:39.624Z,96193.27
2019-02-03T11:52:06.841Z,96187.20
2019-02-03T11:54:33.680Z,96181.25
2019-02-03T11:57:00.370Z,96199.82
2019-02-03T11:59:27.015Z,96199.21
2019-02-03T12:01:53.932Z,96197.41
2019-02-03T12:04:20.800Z,96181.49
2019-02-03T12:06:47.489Z,96170.02
2019-02-03T12:09:14.118Z,96158.31
2019-02-03T12:11:41.415Z,96172.60
2019-02-03T12:14:08.453Z,96166.91
2019-02-03T12:16:35.311Z,96159.78
2019-02-03T12:19:02.099Z,96164.48
2019-02-03T12:21:30.189Z,96160.98
2019-02-03T12:23:57.384Z,96155.16
2019-02-03T12:26:24.151Z,96167.44
2019-02-03T12:28:50.852Z,96157.34
2019-02-03T12:31:17.589Z,96149.70
2019-02-03T12:33:44.596Z,96149.17
2019-02-03T12:36:11.639Z,96152.95
2019-02-03T12:38:38.325Z,96160.56
2019-02-03T12:41:07.582Z,96163.23
2019-02-03T12:43:37.713Z,96159.56
2019-02-03T12:46:04.627Z,96159.14
2019-02-03T12:48:47.036Z,96159.78
2019-02-03T12:51:14.577Z,96156.11
2019-02-03T12:53:44.919Z,96153.41
2019-02-03T12:56:16.145Z,96151.81
2019-02-03T12:58:43.851Z,96154.25
2019-02-03T13:01:14.683Z,96152.94
2019-02-03T13:03:42.792Z,96148.94
2019-02-03T13:06:10.818Z,96154.95
2019-02-03T13:08:42.373Z,96152.30
2019-02-03T13:11:12.022Z,96151.37
2019-02-03T13:13:41.881Z,96148.31
2019-02-03T13:16:10.113Z,96142.28
2019-02-03T13:18:39.756Z,96144.81
2019-02-03T13:21:13.398Z,96149.93
2019-02-03T13:23:44.912Z,96157.94
2019-02-03T13:26:13.151Z,96167.36
2019-02-03T13:28:43.273Z,96174.11
2019-02-03T13:31:14.324Z,96179.18
2019-02-03T13:33:45.782Z,96191.55
2019-02-03T13:36:20.419Z,96195.94
2019-02-03T13:38:48.896Z,96206.90
2019-02-03T13:41:18.276Z,96213.28
2019-02-03T13:43:47.793Z,96220.80
2019-02-03T13:46:15.715Z,96218.80
2019-02-03T13:48:42.961Z,96229.87
2019-02-03T13:51:12.470Z,96232.92
2019-02-03T13:56:30.187Z,96248.72
2019-02-03T13:58:59.926Z,96254.16
2019-02-03T14:01:26.731Z,96258.50
2019-02-03T14:03:54.863Z,96257.52
2019-02-03T14:06:21.582Z,96258.61
2019-02-03T14:08:48.302Z,96266.76
2019-02-03T14:11:14.980Z,96278.23
2019-02-03T14:13:41.835Z,96279.17
2019-02-03T14:16:08.821Z,96284.01
2019-02-03T14:18:35.796Z,96296.20
2019-02-03T14:21:02.608Z,96293.01
2019-02-03T14:23:29.287Z,96306.88
2019-02-03T14:25:55.985Z,96318.32
2019-02-03T14:28:22.893Z,96322.09
2019-02-03T14:30:51.330Z,96325.91
2019-02-03T14:33:18.077Z,96326.94
2019-02-03T14:35:45.105Z,96334.13
2019-02-03T14:38:12.060Z,96337.31
2019-02-03T14:40:39.695Z,96341.47
2019-02-03T14:43:06.297Z,96356.39
2019-02-03T14:45:33.232Z,96350.53
2019-02-03T14:48:00.225Z,96360.03
2019-02-03T14:50:27.493Z,96360.70
2019-02-03T14:52:58.296Z,96366.48
2019-02-03T14:55:25.653Z,96363.92
2019-02-03T14:57:52.390Z,96371.46
2019-02-03T15:00:31.176Z,96388.16
2019-02-03T15:02:57.821Z,96389.38
2019-02-03T15:05:25.788Z,96398.27
2019-02-03T15:07:52.472Z,96395.92
2019-02-03T15:10:19.391Z,96401.38
2019-02-03T15:12:45.991Z,96403.14
2019-02-03T15:15:12.849Z,96408.48
2019-02-03T15:17:39.754Z,96410.02
2019-02-03T15:20:06.690Z,96412.05
2019-02-03T15:22:34.843Z,96420.12
2019-02-03T15:25:01.800Z,96423.27
2019-02-03T15:27:28.727Z,96418.72
2019-02-03T15:29:56.100Z,96423.10
2019-02-03T15:32:23.715Z,96428.99
2019-02-03T15:34:50.399Z,96434.80
2019-02-03T15:37:17.290Z,96435.52
2019-02-03T15:39:44.038Z,96444.48
2019-02-03T15:42:10.677Z,96447.40
2019-02-03T15:44:37.353Z,96455.05
2019-02-03T15:47:04.140Z,96457.07
2019-02-03T15:49:31.021Z,96457.28
2019-02-03T15:51:57.647Z,96464.73
2019-02-03T15:54:25.821Z,96472.60
2019-02-03T15:56:52.436Z,96470.39
2019-02-03T15:59:19.367Z,96475.70
2019-02-03T16:01:45.962Z,96472.31
2019-02-03T16:04:12.640Z,96481.16
2019-02-03T16:06:39.555Z,96486.51
2019-02-03T16:09:06.353Z,96486.08
2019-02-03T16:11:33.466Z,96495.94
2019-02-03T16:14:00.104Z,96495.87
2019-02-03T16:16:27.121Z,96497.39
2019-02-03T16:18:53.705Z,96498.84
2019-02-03T16:21:20.497Z,96500.55
2019-02-03T16:23:47.173Z,96505.15
2019-02-03T16:26:13.985Z,96507.78
2019-02-03T16:28:40.952Z,96524.78
2019-02-03T16:31:16.169Z,96534.69
2019-02-03T16:33:43.925Z,96540.67
2019-02-03T16:36:10.631Z,96555.94
2019-02-03T16:38:37.307Z,96556.96
2019-02-03T16:41:08.121Z,96557.38
2019-02-03T16:43:48.695Z,96563.41
2019-02-03T16:46:07.846Z,96569.67
2019-02-03T16:48:36.613Z,96572.77
2019-02-03T16:51:05.298Z,96579.02
2019-02-03T16:53:34.238Z,96574.67
2019-02-03T16:56:00.839Z,96583.67
2019-02-03T16:58:28.877Z,96594.94
2019-02-03T17:00:59.369Z,96599.37
2019-02-03T17:03:30.789Z,96607.33
2019-02-03T17:05:59.516Z,96605.25
2019-02-03T17:08:44.009Z,96613.58
2019-02-03T17:11:11.638Z,96615.89
2019-02-03T17:13:39.472Z,96625.64
2019-02-03T17:16:07.123Z,96624.27
2019-02-03T17:18:38.167Z,96631.57
2019-02-03T17:21:13.030Z,96638.41
2019-02-03T17:23:38.010Z,96646.37
2019-02-03T17:26:05.994Z,96643.28
2019-02-03T17:28:33.681Z,96650.89
2019-02-03T17:31:02.587Z,96657.02
2019-02-03T17:33:30.016Z,96662.97
2019-02-03T17:35:57.544Z,96666.53
2019-02-03T17:38:26.363Z,96670.11
2019-02-03T17:40:53.091Z,96669.31
2019-02-03T17:43:24.838Z,96675.78
2019-02-03T17:45:59.611Z,96685.03
2019-02-03T17:48:35.024Z,96689.33
2019-02-03T17:51:02.451Z,96698.34
2019-02-03T17:53:29.524Z,96710.17
2019-02-03T17:55:56.187Z,96721.38
2019-02-03T17:58:27.886Z,96723.49
2019-02-03T18:00:55.592Z,96728.14
2019-02-03T18:03:24.964Z,96734.93
2019-02-03T18:06:05.546Z,96741.23
2019-02-03T18:08:27.005Z,96756.30
2019-02-03T18:13:41.806Z,96774.48
2019-02-03T18:16:08.753Z,96785.27
2019-02-03T18:18:37.442Z,96786.34
2019-02-03T18:21:05.158Z,96798.56
2019-02-03T18:26:19.624Z,96813.73
2019-02-03T18:28:49.700Z,96829.35
2019-02-03T18:31:18.097Z,96833.41
2019-02-03T18:33:48.887Z,96844.50
2019-02-03T18:36:28.673Z,96840.31
2019-02-03T18:38:47.541Z,96853.17
2019-02-03T18:41:15.072Z,96861.22
2019-02-03T18:43:41.994Z,96868.19
2019-02-03T18:46:08.887Z,96856.79
2019-02-03T18:48:36.977Z,96872.98
2019-02-03T18:51:06.334Z,96884.47
2019-02-03T18:53:33.200Z,96892.41
2019-02-03T18:56:03.053Z,96898.06
2019-02-03T18:58:30.416Z,96907.88
2019-02-03T19:00:57.121Z,96916.77
2019-02-03T19:03:24.255Z,96921.65
2019-02-03T19:05:52.422Z,96937.63
2019-02-03T19:08:19.210Z,96938.11
2019-02-03T19:10:46.444Z,96951.12
2019-02-03T19:13:13.342Z,96944.52
2019-02-03T19:15:40.429Z,96953.37
2019-02-03T19:18:07.211Z,96955.88
2019-02-03T19:20:33.890Z,96964.59
2019-02-03T19:23:00.662Z,96972.95
2019-02-03T19:25:27.361Z,96971.52
2019-02-03T19:27:54.121Z,96984.86
2019-02-03T19:30:22.011Z,96987.92
2019-02-03T19:32:51.566Z,96992.67
2019-02-03T19:35:17.563Z,97000.25
2019-02-03T19:38:02.062Z,97013.02
2019-02-03T19:40:28.849Z,97020.69
2019-02-03T19:42:55.756Z,97023.05
2019-02-03T19:45:23.087Z,97037.50
2019-02-03T19:47:49.738Z,97038.75
2019-02-03T19:50:16.728Z,97049.58
2019-02-03T19:52:48.008Z,97055.71
2019-02-03T19:55:14.941Z,97067.37
2019-02-03T19:57:41.904Z,97068.00
2019-02-03T20:00:09.203Z,97073.00
2019-02-03T20:02:35.923Z,97077.55
2019-02-03T20:05:03.399Z,97083.24
2019-02-03T20:07:30.264Z,97091.63
2019-02-03T20:09:57.019Z,97107.32
2019-02-03T20:12:27.069Z,97109.19
2019-02-03T20:14:53.742Z,97107.17
2019-02-03T20:17:20.387Z,97126.72
2019-02-03T20:19:47.218Z,97129.17
2019-02-03T20:22:14.562Z,97136.34
2019-02-03T20:24:41.431Z,97135.80
2019-02-03T20:27:08.385Z,97145.53
2019-02-03T20:29:35.664Z,97155.72
2019-02-03T20:32:02.542Z,97160.66
2019-02-03T20:34:29.542Z,97169.19
2019-02-03T20:36:56.493Z,97175.39
2019-02-03T20:39:24.340Z,97180.77
2019-02-03T20:41:56.360Z,97194.69
2019-02-03T20:44:32.313Z,97186.01
2019-02-03T20:46:59.426Z,97203.84
2019-02-03T20:49:31.599Z,97212.87
2019-02-03T20:51:59.222Z,97225.77
2019-02-03T20:54:28.631Z,97224.09
2019-02-03T20:56:59.512Z,97242.02
2019-02-03T20:59:26.382Z,97242.08
2019-02-03T21:01:54.267Z,97250.25
2019-02-03T21:04:21.547Z,97261.47
2019-02-03T21:06:48.439Z,97250.70
2019-02-03T21:09:15.123Z,97266.81
2019-02-03T21:11:41.856Z,97265.70
2019-02-03T21:14:09.787Z,97276.05
2019-02-03T21:16:36.655Z,97273.78
2019-02-03T21:19:03.494Z,97277.13
2019-02-03T21:21:31.893Z,97285.19
2019-02-03T21:23:58.684Z,97287.45
2019-02-03T21:26:25.724Z,97299.08
2019-02-03T21:28:52.427Z,97298.92
2019-02-03T21:31:19.349Z,97300.45
2019-02-03T21:33:46.356Z,97306.96
2019-02-03T21:36:13.303Z,97306.51
2019-02-03T21:38:40.576Z,97332.00
2019-02-03T21:41:07.311Z,97335.03
2019-02-03T21:43:34.629Z,97335.00
2019-02-03T21:46:02.905Z,97347.67
2019-02-03T21:48:29.930Z,97351.98
2019-02-03T21:50:56.737Z,97354.45
2019-02-03T21:53:23.555Z,97356.69
2019-02-03T21:55:50.626Z,97362.42
2019-02-03T21:58:17.741Z,97370.39
2019-02-03T22:00:44.887Z,97375.48
2019-02-03T22:03:11.611Z,97379.97
2019-02-03T22:05:39.247Z,97395.68
2019-02-03T22:08:06.191Z,97405.29
2019-02-03T22:10:33.126Z,97412.33
2019-02-03T22:13:03.014Z,97403.99
2019-02-03T22:15:28.795Z,97417.05
2019-02-03T22:17:55.868Z,97422.27
2019-02-03T22:20:22.923Z,97430.59
2019-02-03T22:22:49.999Z,97437.78
2019-02-03T22:25:16.991Z,97450.38
2019-02-03T22:27:43.936Z,97455.30
2019-02-03T22:30:10.760Z,97457.59
2019-02-03T22:32:37.552Z,97467.25
2019-02-03T22:35:04.483Z,97475.40
2019-02-03T22:37:31.202Z,97473.70
2019-02-03T22:39:58.469Z,97480.27
2019-02-03T22:42:25.348Z,97499.59
2019-02-03T22:44:52.384Z,97508.73
2019-02-03T22:47:19.077Z,97507.11
2019-02-03T22:49:45.943Z,97523.00
2019-02-03T22:52:16.541Z,97528.38
2019-02-03T22:57:31.696Z,97544.24
2019-02-03T23:00:10.006Z,97551.45
2019-02-03T23:02:44.636Z,97569.95
2019-02-03T23:05:11.695Z,97566.53
2019-02-03T23:07:42.727Z,97570.63
2019-02-03T23:10:12.674Z,97573.73
2019-02-03T23:12:45.392Z,97584.69
2019-02-03T23:15:13.988Z,97589.42
2019-02-03T23:17:44.392Z,97596.31
2019-02-03T23:20:15.404Z,97611.03
2019-02-03T23:22:45.364Z,97620.02
2019-02-03T23:25:16.210Z,97620.84
2019-02-03T23:27:46.989Z,97623.14
2019-02-03T23:30:14.960Z,97627.86
2019-02-03T23:32:42.642Z,97632.72
2019-02-03T23:35:12.849Z,97643.94
2019-02-03T23:37:43.980Z,97639.41
2019-02-03T23:40:11.725Z,97643.83
2019-02-03T23:42:39.427Z,97642.22
2019-02-03T23:45:08.455Z,97646.14
2019-02-03T23:47:36.892Z,97651.84
2019-02-03T23:50:08.240Z,97665.47
2019-02-03T23:52:39.229Z,97667.92
2019-02-03T23:55:10.542Z,97683.15
2019-02-03T23:57:38.419Z,97686.45
